Time;durP1;ratioP1;P1;durP2;ratioP2;P2;SDS_P1;SDS_P2;PMS_P1;PMS_P2;Temp;Humidity;BMP_temperature;BMP_pressure;BME280_temperature;BME280_humidity;BME280_pressure;Samples;Min_cycle;Max_cycle;Signal;HPM_P1;HPM_P2
2023/09/30 04:51:27;;;;;;;15.50;10.30;;;;;;;15.85;100.00;100108.30;101586;1288;600645;-61
2023/09/30 04:53:57;;;;;;;14.10;10.80;;;;;;;16.35;100.00;100107.38;103891;1270;61405;-62
2023/09/30 04:56:25;;;;;;;14.10;11.50;;;;;;;16.45;100.00;100107.71;104357;1254;59740;-61
2023/09/30 04:58:53;;;;;;;14.20;10.70;;;;;;;16.50;100.00;100107.05;104260;1260;72902;-62
2023/09/30 05:01:21;;;;;;;14.80;10.20;;;;;;;16.54;100.00;100109.80;104269;1276;69210;-61
2023/09/30 05:03:51;;;;;;;13.30;10.40;;;;;;;16.53;100.00;100111.41;104238;1267;71445;-63
2023/09/30 05:06:19;;;;;;;13.00;10.80;;;;;;;16.54;100.00;100113.83;104162;1258;62624;-61
2023/09/30 05:08:47;;;;;;;11.70;10.60;;;;;;;16.55;100.00;100113.80;104316;1254;59424;-61
2023/09/30 05:11:15;;;;;;;13.30;11.10;;;;;;;16.59;100.00;100111.27;104323;1255;72058;-61
2023/09/30 05:13:43;;;;;;;13.20;10.30;;;;;;;16.65;100.00;100109.86;104309;1251;70094;-61
2023/09/30 05:16:13;;;;;;;12.70;10.70;;;;;;;16.71;100.00;100108.06;104355;1251;72971;-62
2023/09/30 05:18:43;;;;;;;13.90;10.70;;;;;;;16.77;100.00;100108.77;104283;1260;60292;-61
2023/09/30 05:21:14;;;;;;;11.20;10.00;;;;;;;16.83;100.00;100105.27;104299;1252;59701;-61
2023/09/30 05:23:42;;;;;;;11.20;9.60;;;;;;;16.92;100.00;100105.58;104339;1274;73220;-61
2023/09/30 05:26:12;;;;;;;9.80;8.90;;;;;;;16.99;100.00;100107.27;104283;1267;69120;-61
2023/09/30 05:28:40;;;;;;;11.20;10.10;;;;;;;17.08;100.00;100105.66;104315;1257;72714;-61
2023/09/30 05:31:07;;;;;;;15.30;10.50;;;;;;;17.15;100.00;100105.58;104322;1254;60531;-62
2023/09/30 05:33:36;;;;;;;10.30;9.30;;;;;;;17.23;100.00;100102.25;104315;1251;59832;-61
2023/09/30 05:36:04;;;;;;;11.70;9.30;;;;;;;17.32;100.00;100104.30;104517;1253;72750;-61
2023/09/30 05:38:32;;;;;;;16.50;10.20;;;;;;;17.41;100.00;100104.61;104281;1272;69594;-61
2023/09/30 05:41:00;;;;;;;17.00;11.70;;;;;;;17.53;100.00;100106.14;104248;1265;71238;-62
2023/09/30 05:43:29;;;;;;;14.20;12.40;;;;;;;17.64;100.00;100102.99;104265;1260;61725;-62
2023/09/30 05:45:58;;;;;;;15.20;13.40;;;;;;;17.75;100.00;100104.96;104486;1257;59739;-62
2023/09/30 05:48:28;;;;;;;20.50;12.50;;;;;;;17.85;100.00;100109.78;104223;1259;73634;-61
2023/09/30 05:51:01;;;;;;;12.80;10.80;;;;;;;18.01;100.00;100106.99;104294;1267;69600;-61
2023/09/30 05:53:32;;;;;;;14.40;10.00;;;;;;;18.15;100.00;100107.98;104402;1276;72440;-62
2023/09/30 05:56:00;;;;;;;18.40;10.40;;;;;;;18.30;100.00;100101.14;105103;1256;60653;-62
2023/09/30 05:58:31;;;;;;;17.40;10.30;;;;;;;18.43;100.00;100099.56;104438;1270;60852;-61
2023/09/30 06:01:02;;;;;;;13.40;10.00;;;;;;;18.58;100.00;100104.05;104469;1255;73101;-62
2023/09/30 06:03:33;;;;;;;14.30;10.10;;;;;;;18.69;100.00;100101.10;104300;1276;69718;-61
2023/09/30 06:06:10;;;;;;;13.10;9.80;;;;;;;18.81;100.00;100104.23;104246;1259;72766;-62
2023/09/30 06:08:38;;;;;;;14.70;9.30;;;;;;;18.96;100.00;100101.08;104263;1259;61622;-63
2023/09/30 06:11:06;;;;;;;19.90;9.30;;;;;;;19.07;100.00;100098.72;104340;1257;59829;-63
2023/09/30 06:13:34;;;;;;;18.00;9.40;;;;;;;19.22;100.00;100101.73;104260;1260;72936;-62
2023/09/30 06:16:02;;;;;;;17.50;9.20;;;;;;;19.29;100.00;100101.55;104316;1270;70485;-62
2023/09/30 06:18:30;;;;;;;11.30;8.80;;;;;;;19.36;100.00;100098.39;104372;1271;73342;-63
2023/09/30 06:20:58;;;;;;;;;;;;;;;19.34;100.00;100100.14;104337;1255;61441;-62
2023/09/30 06:23:25;;;;;;;;;;;;;;;19.45;100.00;100097.59;104388;1254;59726;-62
2023/09/30 06:25:54;;;;;;;11.90;8.00;;;;;;;19.53;99.88;100096.30;104294;1259;72923;-62
2023/09/30 06:28:25;;;;;;;11.10;8.90;;;;;;;19.60;100.00;100095.58;104250;1276;69251;-62
2023/09/30 06:30:54;;;;;;;14.20;8.70;;;;;;;19.74;100.00;100096.70;104247;1254;72966;-62
2023/09/30 06:33:22;;;;;;;14.50;9.20;;;;;;;19.83;100.00;100099.11;104287;1255;61456;-62
2023/09/30 06:35:50;;;;;;;10.00;8.20;;;;;;;19.95;100.00;100099.11;104297;1254;60102;-62
2023/09/30 06:38:19;;;;;;;11.20;7.70;;;;;;;20.12;94.68;100103.52;104286;1259;72023;-62
2023/09/30 06:40:47;;;;;;;7.90;6.90;;;;;;;20.23;92.16;100100.69;104271;1276;69031;-62
2023/09/30 06:43:15;;;;;;;13.00;7.20;;;;;;;20.35;89.42;100098.39;104361;1276;71357;-63
2023/09/30 06:45:44;;;;;;;11.90;7.80;;;;;;;20.45;90.91;100096.71;104453;1256;61986;-62
2023/09/30 06:48:12;;;;;;;9.40;6.70;;;;;;;20.53;90.46;100094.70;104606;1256;60143;-63
2023/09/30 06:50:45;;;;;;;10.50;6.40;;;;;;;20.65;87.29;100095.45;104291;1276;73268;-62
2023/09/30 06:53:17;;;;;;;8.80;6.80;;;;;;;20.86;80.63;100091.06;104323;1277;69340;-62
2023/09/30 06:55:45;;;;;;;12.80;6.40;;;;;;;21.02;76.80;100089.30;104287;1254;73350;-62
2023/09/30 06:58:13;;;;;;;11.10;6.30;;;;;;;21.17;76.40;100093.98;104267;1256;61772;-62
2023/09/30 07:00:41;;;;;;;10.80;6.90;;;;;;;21.33;76.22;100089.14;104291;1257;59714;-62
2023/09/30 07:03:10;;;;;;;12.30;7.60;;;;;;;21.42;80.33;100093.45;104284;1259;72876;-62
2023/09/30 07:05:38;;;;;;;14.40;7.50;;;;;;;21.49;84.17;100094.12;104296;1258;68417;-62
2023/09/30 07:08:05;;;;;;;;;;;;;;;21.57;78.89;100088.13;104151;1272;72486;-62
2023/09/30 07:10:33;;;;;;;;;;;;;;;21.67;74.58;100090.93;104319;1253;60497;-62
2023/09/30 07:13:04;;;;;;;;;;;;;;;21.78;71.88;100090.73;104292;1257;59753;-62
2023/09/30 07:15:32;;;;;;;11.40;7.20;;;;;;;21.89;68.11;100088.87;104280;1254;72851;-62
2023/09/30 07:18:00;;;;;;;10.30;8.00;;;;;;;22.01;68.86;100089.82;104363;1257;69061;-61
2023/09/30 07:20:32;;;;;;;10.60;7.50;;;;;;;22.14;69.09;100090.76;104391;1258;72388;-61
2023/09/30 07:23:01;;;;;;;8.00;7.00;;;;;;;22.25;67.70;100087.69;104307;1255;59777;-62
2023/09/30 07:25:45;;;;;;;12.00;7.50;;;;;;;22.34;66.58;100088.71;104270;1259;59848;-62
2023/09/30 07:28:13;;;;;;;19.00;7.90;;;;;;;22.41;66.10;100084.93;104301;1276;72825;-63
2023/09/30 07:30:41;;;;;;;10.60;7.40;;;;;;;22.50;65.40;100085.55;104336;1257;69282;-62
2023/09/30 07:33:08;;;;;;;;;;;;;;;22.62;64.53;100084.37;104304;1254;72849;-61
2023/09/30 07:35:38;;;;;;;18.80;7.10;;;;;;;22.75;63.71;100081.48;104420;1255;59770;-61
2023/09/30 07:38:06;;;;;;;10.60;7.00;;;;;;;22.87;63.41;100081.33;104263;1257;59437;-61
2023/09/30 07:40:34;;;;;;;11.40;7.80;;;;;;;22.98;62.56;100078.35;104279;1262;72709;-61
2023/09/30 07:43:03;;;;;;;8.20;7.00;;;;;;;23.09;61.04;100078.02;104343;1270;69530;-61
2023/09/30 07:45:32;;;;;;;12.60;8.00;;;;;;;23.22;60.38;100074.88;104314;1276;72941;-62
2023/09/30 07:48:03;;;;;;;16.20;7.70;;;;;;;23.34;60.51;100075.90;104281;1254;60193;-61
2023/09/30 07:50:31;;;;;;;7.50;6.80;;;;;;;23.46;60.42;100073.06;104269;1256;60741;-61
2023/09/30 07:53:00;;;;;;;11.30;6.70;;;;;;;23.53;59.13;100069.25;108302;1254;72960;-63
2023/09/30 07:55:28;;;;;;;13.00;7.50;;;;;;;23.60;58.53;100071.11;104433;1257;69510;-61
2023/09/30 07:58:07;;;;;;;14.10;7.70;;;;;;;23.70;58.00;100067.17;104831;1254;72363;-62
2023/09/30 08:00:36;;;;;;;14.80;6.80;;;;;;;23.82;57.24;100063.58;104472;1256;59416;-63
2023/09/30 08:03:04;;;;;;;11.50;7.20;;;;;;;23.90;56.11;100061.59;104567;1257;59758;-62
2023/09/30 08:05:32;;;;;;;;;;;;;;;23.99;55.08;100065.79;104441;1257;73287;-59
2023/09/30 08:08:01;;;;;;;14.30;7.20;;;;;;;24.17;54.55;100069.30;104273;1257;69118;-62
2023/09/30 08:10:31;;;;;;;10.00;7.50;;;;;;;24.27;52.82;100061.36;104554;1258;72396;-60
2023/09/30 08:13:02;;;;;;;12.40;6.50;;;;;;;24.37;53.01;100058.11;104312;1260;60739;-62
2023/09/30 08:15:30;;;;;;;11.80;7.00;;;;;;;24.48;52.61;100058.30;104352;1257;60599;-62
2023/09/30 08:17:58;;;;;;;10.60;6.10;;;;;;;24.57;52.19;100057.05;104382;1274;72713;-62
2023/09/30 08:20:26;;;;;;;;;;;;;;;24.63;51.76;100050.66;104380;1260;70269;-62
2023/09/30 08:22:54;;;;;;;9.50;6.10;;;;;;;24.70;50.03;100051.58;104325;1254;73398;-61
2023/09/30 08:25:22;;;;;;;7.90;6.30;;;;;;;24.83;50.61;100049.13;104341;1256;59777;-63
2023/09/30 08:27:50;;;;;;;12.10;5.90;;;;;;;24.94;48.25;100051.84;104299;1257;60091;-62
2023/09/30 08:30:18;;;;;;;12.20;5.40;;;;;;;25.00;48.08;100048.27;104389;1257;72940;-62
2023/09/30 08:32:46;;;;;;;7.50;5.30;;;;;;;25.10;47.96;100051.39;104421;1276;69316;-62
2023/09/30 08:35:15;;;;;;;15.90;5.60;;;;;;;25.21;46.81;100048.20;104518;1254;73020;-63
2023/09/30 08:37:43;;;;;;;6.90;5.30;;;;;;;25.35;45.86;100046.11;104527;1257;59885;-62
2023/09/30 08:40:13;;;;;;;6.70;5.80;;;;;;;25.45;46.55;100046.71;104740;1256;59570;-61
2023/09/30 08:42:44;;;;;;;10.60;6.30;;;;;;;25.53;45.44;100039.48;104652;1256;73352;-63
2023/09/30 08:45:14;;;;;;;8.60;6.40;;;;;;;25.63;45.49;100040.63;104720;1254;69506;-62
2023/09/30 08:47:43;;;;;;;8.60;5.90;;;;;;;25.72;45.39;100034.19;104408;1254;75424;-62
2023/09/30 08:50:12;;;;;;;13.80;6.60;;;;;;;25.81;45.23;100034.90;106725;1253;59782;-62
2023/09/30 08:52:41;;;;;;;6.90;5.80;;;;;;;25.92;44.30;100033.23;104461;1253;59816;-62
2023/09/30 08:55:09;;;;;;;7.70;5.70;;;;;;;25.99;44.48;100031.11;104448;1260;72776;-63
2023/09/30 08:57:41;;;;;;;6.80;5.70;;;;;;;26.04;43.40;100027.35;104458;1253;70309;-62
2023/09/30 09:00:13;;;;;;;8.70;5.70;;;;;;;26.12;43.31;100020.64;104866;1254;72894;-62
2023/09/30 09:02:42;;;;;;;6.50;5.80;;;;;;;26.24;43.85;100019.11;104670;1253;60547;-62
2023/09/30 09:05:11;;;;;;;12.50;5.40;;;;;;;26.34;43.46;100018.77;104335;1257;60453;-63
2023/09/30 09:07:39;;;;;;;8.80;5.80;;;;;;;26.44;42.50;100017.15;104217;1254;74040;-62
2023/09/30 09:10:13;;;;;;;6.60;5.50;;;;;;;26.48;42.14;100018.55;104396;1258;69116;-63
2023/09/30 09:12:44;;;;;;;11.70;5.90;;;;;;;26.54;41.47;100016.70;104378;1257;71163;-62
2023/09/30 09:15:22;;;;;;;;;;;;;;;26.60;41.46;100015.91;104357;1259;60558;-62
2023/09/30 09:17:51;;;;;;;6.00;4.90;;;;;;;26.65;40.84;100008.73;104392;1257;60530;-62
2023/09/30 09:20:25;;;;;;;8.30;5.30;;;;;;;26.73;41.17;100004.86;104257;1276;74170;-62
2023/09/30 09:22:55;;;;;;;7.60;5.80;;;;;;;26.80;39.94;100008.24;104345;1257;68151;-62
2023/09/30 09:25:23;;;;;;;10.20;5.20;;;;;;;26.86;40.06;100001.52;104596;1257;72731;-63
2023/09/30 09:27:51;;;;;;;9.10;5.10;;;;;;;26.88;40.43;100003.41;104257;1254;60472;-63
2023/09/30 09:30:24;;;;;;;10.40;5.60;;;;;;;26.91;39.00;100002.55;104291;1257;60430;-63
2023/09/30 09:33:01;;;;;;;6.20;5.00;;;;;;;26.93;38.84;100001.61;104599;1253;73911;-64
2023/09/30 09:35:32;;;;;;;11.20;5.30;;;;;;;26.98;39.06;99999.55;104827;1256;69274;-65
2023/09/30 09:38:06;;;;;;;11.80;5.10;;;;;;;27.01;39.52;99995.80;104418;1259;72453;-65
2023/09/30 09:40:36;;;;;;;6.60;5.00;;;;;;;27.04;39.24;99992.44;104318;1254;60520;-68
2023/09/30 09:43:09;;;;;;;6.60;5.30;;;;;;;27.09;39.33;99991.52;104549;1260;60501;-67
2023/09/30 09:45:38;;;;;;;8.70;5.30;;;;;;;27.16;38.67;99991.77;104684;1256;72857;-65
2023/09/30 09:48:08;;;;;;;6.40;5.20;;;;;;;27.27;38.26;99987.40;104409;1258;69186;-64
2023/09/30 09:50:36;;;;;;;;;;;;;;;27.40;38.29;99983.70;104179;1260;72439;-65
2023/09/30 09:53:04;;;;;;;7.90;4.40;;;;;;;27.49;37.83;99983.98;104360;1254;60542;-65
2023/09/30 09:55:32;;;;;;;6.20;5.00;;;;;;;27.58;37.29;99983.03;108315;1253;59693;-67
2023/09/30 09:58:00;;;;;;;6.70;5.10;;;;;;;27.66;36.87;99981.48;105613;1255;73823;-66
2023/09/30 10:00:30;;;;;;;5.30;4.80;;;;;;;27.72;36.86;99979.08;104458;1259;69513;-65
2023/09/30 10:03:03;;;;;;;4.80;4.30;;;;;;;27.81;36.32;99974.09;106302;1254;72980;-63
2023/09/30 10:05:33;;;;;;;8.80;4.20;;;;;;;27.79;34.48;99976.59;108301;1253;59768;-64
2023/09/30 10:08:07;;;;;;;8.30;4.30;;;;;;;27.89;34.72;99971.17;105052;1257;61025;-63
2023/09/30 10:10:35;;;;;;;5.80;4.10;;;;;;;27.93;34.31;99960.41;104288;1254;72683;-62
2023/09/30 10:13:03;;;;;;;6.00;4.40;;;;;;;27.95;34.48;99962.42;104476;1260;70292;-66
2023/09/30 10:15:31;;;;;;;7.30;4.00;;;;;;;28.00;34.00;99966.88;104676;1254;72777;-64
2023/09/30 10:18:04;;;;;;;6.50;4.30;;;;;;;28.07;33.86;99961.23;104354;1259;62872;-64
2023/09/30 10:20:32;;;;;;;10.20;4.40;;;;;;;28.12;33.83;99961.92;104379;1260;60437;-65
2023/09/30 10:23:19;;;;;;;4.40;4.00;;;;;;;28.15;32.62;99951.89;104333;1258;73750;-66
2023/09/30 10:25:49;;;;;;;4.90;3.90;;;;;;;28.18;32.95;99947.60;104300;1273;69098;-65
2023/09/30 10:28:44;;;;;;;7.20;4.30;;;;;;;28.22;33.41;99947.75;104278;1260;72579;-64
2023/09/30 10:31:15;;;;;;;6.60;4.30;;;;;;;28.27;33.37;99939.89;104370;1259;60606;-65
2023/09/30 10:34:02;;;;;;;5.50;4.40;;;;;;;28.33;33.58;99937.84;104298;1262;60555;-65
2023/09/30 10:36:36;;;;;;;5.60;4.20;;;;;;;28.37;33.20;99938.45;104263;1257;73704;-64
2023/09/30 10:39:04;;;;;;;8.20;4.10;;;;;;;28.43;32.52;99937.23;104313;1276;69771;-63
2023/09/30 10:41:39;;;;;;;7.90;4.60;;;;;;;28.46;32.94;99932.33;104595;1254;72354;-64
2023/09/30 10:44:22;;;;;;;6.80;4.80;;;;;;;28.50;33.10;99926.84;104739;1253;60537;-62
2023/09/30 10:46:50;;;;;;;6.20;4.60;;;;;;;28.58;32.76;99927.62;104510;1263;60121;-62
2023/09/30 10:49:24;;;;;;;5.40;4.60;;;;;;;28.67;32.97;99924.36;104423;1270;73735;-63
2023/09/30 10:51:56;;;;;;;9.90;4.60;;;;;;;28.72;32.79;99920.95;104321;1260;69319;-61
2023/09/30 10:54:27;;;;;;;9.80;4.60;;;;;;;28.78;32.89;99918.96;104258;1258;73359;-61
2023/09/30 10:56:54;;;;;;;7.20;4.60;;;;;;;28.84;32.99;99912.88;104243;1260;60460;-61
2023/09/30 10:59:22;;;;;;;;;;;;;;;28.88;32.23;99908.86;104913;1259;61090;-62
2023/09/30 11:01:51;;;;;;;5.10;4.20;;;;;;;28.92;32.15;99905.62;105127;1254;74299;-64
2023/09/30 11:04:21;;;;;;;7.50;4.20;;;;;;;28.95;32.52;99907.01;105960;1254;69718;-63
2023/09/30 11:06:51;;;;;;;6.10;4.50;;;;;;;28.94;31.78;99903.25;108169;1254;72638;-63
2023/09/30 11:09:20;;;;;;;7.90;4.80;;;;;;;28.91;31.95;99901.45;107874;1253;59757;-62
2023/09/30 11:11:50;;;;;;;7.40;4.30;;;;;;;28.95;32.05;99902.27;107666;1256;60088;-62
2023/09/30 11:14:18;;;;;;;5.80;4.70;;;;;;;29.05;31.99;99902.37;105028;1254;72915;-61
2023/09/30 11:16:52;;;;;;;9.20;4.20;;;;;;;29.14;31.94;99899.52;104367;1275;69164;-61
2023/09/30 11:19:21;;;;;;;9.80;5.40;;;;;;;29.18;31.19;99892.93;104271;1259;71452;-61
2023/09/30 11:21:52;;;;;;;5.50;4.90;;;;;;;29.19;31.18;99896.96;104351;1259;60568;-60
2023/09/30 11:24:20;;;;;;;6.90;4.60;;;;;;;29.24;30.82;99892.96;104398;1259;60572;-60
2023/09/30 11:26:50;;;;;;;6.50;4.80;;;;;;;29.31;31.29;99886.17;104472;1260;73694;-61
2023/09/30 11:29:17;;;;;;;10.00;5.90;;;;;;;29.38;31.33;99881.34;104015;1255;70350;-61
2023/09/30 11:31:47;;;;;;;6.80;5.20;;;;;;;29.43;31.19;99885.13;104282;1277;73146;-60
2023/09/30 11:34:16;;;;;;;5.00;4.20;;;;;;;29.41;30.40;99884.02;104381;1254;60466;-61
2023/09/30 11:36:51;;;;;;;6.80;4.20;;;;;;;29.34;30.06;99882.77;104545;1254;60417;-62
2023/09/30 11:39:28;;;;;;;6.90;4.70;;;;;;;29.18;30.24;99881.94;104274;1260;73975;-61
2023/09/30 11:42:00;;;;;;;5.50;4.30;;;;;;;29.03;30.63;99881.13;104630;1269;68191;-61
2023/09/30 11:44:30;;;;;;;4.80;3.90;;;;;;;28.92;30.89;99879.28;104225;1258;73375;-60
2023/09/30 11:47:05;;;;;;;10.90;4.00;;;;;;;28.84;30.26;99874.50;104476;1256;60501;-61
2023/09/30 11:49:39;;;;;;;5.40;4.50;;;;;;;28.74;30.59;99870.89;104386;1260;60988;-61
2023/09/30 11:52:09;;;;;;;8.40;5.20;;;;;;;28.70;30.89;99866.86;104297;1259;73707;-62
2023/09/30 11:54:41;;;;;;;11.30;5.10;;;;;;;28.70;31.61;99861.15;108222;1254;68190;-63
2023/09/30 11:57:16;;;;;;;6.90;4.70;;;;;;;28.76;31.88;99861.56;107966;1256;73339;-64
2023/09/30 11:59:45;;;;;;;6.40;4.60;;;;;;;28.84;31.55;99855.60;108157;1254;59864;-62
2023/09/30 12:02:17;;;;;;;4.50;4.10;;;;;;;28.91;31.00;99853.58;104913;1254;61029;-63
2023/09/30 12:04:47;;;;;;;7.60;4.50;;;;;;;28.96;30.50;99847.27;104507;1259;73724;-63
2023/09/30 12:07:15;;;;;;;5.40;4.90;;;;;;;28.99;30.62;99840.27;104401;1259;70095;-63
2023/09/30 12:09:43;;;;;;;5.20;4.20;;;;;;;29.03;30.60;99841.74;104654;1259;73743;-64
2023/09/30 12:12:14;;;;;;;6.60;5.90;;;;;;;29.15;30.61;99833.73;104446;1256;60460;-63
2023/09/30 12:14:42;;;;;;;8.00;4.90;;;;;;;29.28;31.01;99834.04;104389;1259;60441;-62
2023/09/30 12:17:10;;;;;;;7.00;4.40;;;;;;;29.38;30.31;99832.09;104305;1277;72815;-62
2023/09/30 12:19:40;;;;;;;5.90;5.00;;;;;;;29.45;29.79;99833.45;104405;1269;69196;-63
2023/09/30 12:22:10;;;;;;;8.60;4.70;;;;;;;29.50;29.24;99829.20;104431;1259;72356;-62
2023/09/30 12:24:39;;;;;;;6.70;4.90;;;;;;;29.50;28.73;99828.28;104300;1260;60524;-62
2023/09/30 12:27:08;;;;;;;6.50;4.70;;;;;;;29.55;29.00;99830.45;104501;1259;60430;-63
2023/09/30 12:29:38;;;;;;;8.70;4.90;;;;;;;29.60;29.12;99821.86;104287;1257;73692;-63
2023/09/30 12:32:06;;;;;;;6.50;4.80;;;;;;;29.68;29.50;99819.23;104308;1260;70174;-63
2023/09/30 12:34:35;;;;;;;8.50;5.20;;;;;;;29.80;29.66;99819.42;104238;1257;73249;-64
2023/09/30 12:37:03;;;;;;;7.60;4.70;;;;;;;29.93;29.15;99816.08;104438;1259;60625;-63
2023/09/30 12:39:33;;;;;;;5.40;4.90;;;;;;;30.01;28.84;99813.37;104333;1270;60687;-64
2023/09/30 12:42:01;;;;;;;7.20;5.40;;;;;;;30.08;28.94;99810.84;104393;1269;73879;-63
2023/09/30 12:44:33;;;;;;;8.40;5.70;;;;;;;30.13;29.10;99810.23;104418;1258;69404;-66
2023/09/30 12:47:03;;;;;;;7.90;4.80;;;;;;;30.24;29.13;99810.73;104268;1260;73493;-62
2023/09/30 12:49:31;;;;;;;6.80;5.20;;;;;;;30.34;28.55;99804.25;104387;1259;60851;-62
2023/09/30 12:52:01;;;;;;;10.30;4.90;;;;;;;30.42;28.69;99805.28;104335;1258;60655;-63
2023/09/30 12:54:29;;;;;;;11.30;5.00;;;;;;;30.48;28.29;99802.11;104320;1260;74606;-62
2023/09/30 12:56:59;;;;;;;6.80;4.70;;;;;;;30.57;28.25;99799.08;104467;1260;69087;-61
2023/09/30 12:59:27;;;;;;;6.30;4.80;;;;;;;30.60;27.96;99799.73;104384;1258;72249;-63
2023/09/30 13:01:55;;;;;;;;;;;;;;;30.62;27.83;99794.74;104442;1254;60453;-64
2023/09/30 13:04:24;;;;;;;6.80;5.50;;;;;;;30.59;27.88;99796.09;104454;1253;60559;-63
2023/09/30 13:06:54;;;;;;;7.60;5.50;;;;;;;30.49;28.20;99797.47;104311;1277;73684;-63
2023/09/30 13:09:22;;;;;;;7.10;5.20;;;;;;;30.35;28.30;99793.98;104319;1257;69690;-64
2023/09/30 13:11:50;;;;;;;5.70;5.10;;;;;;;30.21;28.17;99790.13;104340;1259;72517;-65
2023/09/30 13:14:18;;;;;;;9.60;5.10;;;;;;;30.16;28.74;99787.22;104475;1255;60542;-65
2023/09/30 13:16:45;;;;;;;;;;;;;;;30.18;28.68;99788.12;104557;1258;60542;-64
2023/09/30 13:19:15;;;;;;;7.40;4.70;;;;;;;30.27;28.60;99781.19;104730;1258;73587;-64
2023/09/30 13:21:43;;;;;;;6.20;5.10;;;;;;;30.44;28.74;99777.68;104306;1259;70170;-62
2023/09/30 13:24:12;;;;;;;7.30;5.00;;;;;;;30.63;28.52;99776.43;104290;1276;72474;-62
2023/09/30 13:26:40;;;;;;;9.20;4.50;;;;;;;30.81;27.95;99772.76;104273;1259;60843;-62
2023/09/30 13:29:10;;;;;;;7.40;4.70;;;;;;;31.00;28.01;99766.29;104378;1255;60504;-63
2023/09/30 13:31:38;;;;;;;8.60;4.60;;;;;;;31.18;27.81;99766.77;104416;1276;74023;-61
2023/09/30 13:34:05;;;;;;;11.20;4.90;;;;;;;31.19;27.83;99764.07;104261;1264;69727;-61
2023/09/30 13:36:33;;;;;;;;;;;;;;;31.32;27.86;99761.35;104348;1254;72320;-61
2023/09/30 13:39:01;;;;;;;8.80;6.10;;;;;;;31.28;28.09;99759.36;104383;1258;60567;-61
2023/09/30 13:41:28;;;;;;;8.70;7.50;;;;;;;31.15;28.32;99757.63;104395;1258;60453;-62
2023/09/30 13:43:56;;;;;;;;;;;;;;;31.03;28.99;99758.64;104295;1260;73987;-62
2023/09/30 13:46:26;;;;;;;8.80;6.10;;;;;;;31.10;28.98;99756.77;104304;1276;69705;-62
2023/09/30 13:48:54;;;;;;;7.80;6.00;;;;;;;31.17;28.33;99754.05;104312;1259;72283;-62
2023/09/30 13:51:25;;;;;;;5.80;4.70;;;;;;;31.35;27.92;99748.51;104339;1258;60421;-62
2023/09/30 13:53:54;;;;;;;9.00;5.00;;;;;;;31.54;27.24;99742.09;104398;1254;60618;-62
2023/09/30 13:56:22;;;;;;;6.00;5.30;;;;;;;31.71;27.11;99737.85;108434;1254;73674;-62
2023/09/30 13:58:50;;;;;;;7.40;5.50;;;;;;;31.86;26.87;99732.27;105968;1254;69711;-61
2023/09/30 14:01:19;;;;;;;5.90;5.10;;;;;;;32.06;27.07;99732.29;104344;1256;73250;-64
2023/09/30 14:03:48;;;;;;;9.10;4.80;;;;;;;32.16;26.88;99726.73;104379;1260;60558;-65
2023/09/30 14:06:16;;;;;;;6.80;5.10;;;;;;;32.23;26.77;99723.56;104357;1265;60544;-62
2023/09/30 14:08:43;;;;;;;;;;;;;;;32.34;26.85;99720.41;104430;1254;74042;-62
2023/09/30 14:11:12;;;;;;;12.00;5.90;;;;;;;32.43;26.91;99720.09;104274;1259;69640;-64
2023/09/30 14:13:40;;;;;;;8.00;5.70;;;;;;;32.47;26.85;99717.89;104415;1259;71660;-60
2023/09/30 14:16:07;;;;;;;6.60;5.50;;;;;;;32.42;26.48;99716.86;104253;1259;60542;-61
2023/09/30 14:18:36;;;;;;;9.40;5.90;;;;;;;32.43;26.56;99714.73;104303;1254;60556;-61
2023/09/30 14:21:04;;;;;;;9.80;6.30;;;;;;;32.47;26.24;99712.61;104300;1276;74019;-61
2023/09/30 14:23:32;;;;;;;8.40;5.60;;;;;;;32.52;25.76;99712.20;104326;1257;69604;-61
2023/09/30 14:26:04;;;;;;;7.50;6.60;;;;;;;32.51;25.81;99710.91;104275;1257;72381;-62
2023/09/30 14:28:32;;;;;;;7.40;5.80;;;;;;;32.48;26.02;99711.18;104297;1258;60558;-62
2023/09/30 14:31:02;;;;;;;;;;;;;;;32.41;26.45;99708.71;104363;1259;60233;-61
2023/09/30 14:33:31;;;;;;;5.80;5.20;;;;;;;32.32;26.40;99710.58;104309;1276;73719;-62
2023/09/30 14:35:59;;;;;;;9.10;4.90;;;;;;;32.27;26.43;99707.88;104326;1257;69295;-62
2023/09/30 14:38:29;;;;;;;6.70;5.20;;;;;;;32.22;26.45;99708.33;104284;1266;72362;-61
2023/09/30 14:40:57;;;;;;;8.60;5.10;;;;;;;32.14;26.40;99707.34;104320;1259;60481;-62
2023/09/30 14:43:25;;;;;;;7.50;4.90;;;;;;;32.09;26.47;99706.83;104305;1258;60454;-61
2023/09/30 14:45:52;;;;;;;;;;;;;;;32.01;26.50;99701.63;104278;1276;74053;-61
2023/09/30 14:48:20;;;;;;;10.10;5.70;;;;;;;31.88;26.65;99699.53;104314;1258;69137;-62
2023/09/30 14:50:51;;;;;;;39.10;34.90;;;;;;;31.77;26.57;99699.48;104329;1259;72305;-61
2023/09/30 14:53:19;;;;;;;56.00;50.10;;;;;;;31.59;27.11;99699.33;104315;1257;59983;-61
2023/09/30 14:55:50;;;;;;;68.50;61.20;;;;;;;31.36;27.11;99703.05;104290;1260;60655;-61
2023/09/30 14:58:18;;;;;;;68.30;61.40;;;;;;;31.06;27.81;99705.48;104281;1273;74485;-62
2023/09/30 15:00:47;;;;;;;38.10;34.00;;;;;;;30.80;28.00;99708.80;104265;1278;69389;-62
2023/09/30 15:03:15;;;;;;;20.30;16.80;;;;;;;30.53;27.91;99706.79;104246;1261;72468;-61
2023/09/30 15:05:43;;;;;;;11.50;9.30;;;;;;;30.33;28.63;99703.80;104226;1257;60638;-61
2023/09/30 15:08:13;;;;;;;;;;;;;;;30.14;29.34;99698.42;104248;1259;60808;-61
2023/09/30 15:10:41;;;;;;;10.10;6.70;;;;;;;29.90;29.97;99699.91;104628;1258;73679;-61
2023/09/30 15:13:11;;;;;;;9.90;7.10;;;;;;;29.59;30.32;99699.98;104845;1257;69210;-60
2023/09/30 15:15:38;;;;;;;;;;;;;;;29.28;31.20;99696.10;104498;1259;73369;-60
2023/09/30 15:18:06;;;;;;;12.40;9.40;;;;;;;29.01;31.35;99694.23;104329;1259;59803;-61
2023/09/30 15:20:39;;;;;;;14.50;10.10;;;;;;;28.80;32.18;99696.19;104424;1255;60582;-60
2023/09/30 15:23:07;;;;;;;15.10;11.60;;;;;;;28.54;32.41;99700.16;104293;1277;73710;-60
2023/09/30 15:25:42;;;;;;;14.20;12.20;;;;;;;28.30;32.69;99699.85;104457;1259;69133;-59
2023/09/30 15:28:11;;;;;;;25.30;22.30;;;;;;;28.05;33.07;99703.73;104258;1261;72419;-59
2023/09/30 15:30:40;;;;;;;48.80;33.70;;;;;;;27.84;33.60;99703.70;104547;1259;60435;-60
2023/09/30 15:33:08;;;;;;;50.90;37.50;;;;;;;27.61;33.93;99705.45;104546;1260;60975;-59
2023/09/30 15:35:37;;;;;;;59.60;43.50;;;;;;;27.38;34.33;99710.21;104283;1277;74477;-61
2023/09/30 15:38:04;;;;;;;71.10;46.20;;;;;;;27.16;34.44;99710.80;104567;1254;70101;-63
2023/09/30 15:40:33;;;;;;;;;;;;;;;26.95;35.01;99713.38;104299;1259;72394;-63
2023/09/30 15:43:01;;;;;;;58.50;38.80;;;;;;;26.76;35.55;99716.11;104209;1263;60012;-63
2023/09/30 15:45:29;;;;;;;54.00;38.50;;;;;;;26.58;35.75;99717.20;104287;1261;60105;-63
2023/09/30 15:47:56;;;;;;;57.20;36.70;;;;;;;26.41;35.67;99720.40;104377;1260;74515;-63
2023/09/30 15:50:25;;;;;;;62.80;37.20;;;;;;;26.24;35.99;99718.45;104419;1260;69653;-63
2023/09/30 15:52:53;;;;;;;65.90;42.30;;;;;;;26.09;36.32;99721.00;104334;1278;71573;-61
2023/09/30 15:55:21;;;;;;;;;;;;;;;25.91;36.55;99720.41;104473;1270;60457;-64
2023/09/30 15:57:51;;;;;;;64.80;43.80;;;;;;;25.76;36.83;99722.10;105263;1252;60562;-66
2023/09/30 16:00:19;;;;;;;58.10;42.80;;;;;;;25.63;37.02;99718.07;104393;1263;74487;-66
2023/09/30 16:02:47;;;;;;;57.30;37.90;;;;;;;25.51;37.54;99720.66;104474;1254;69145;-67
2023/09/30 16:05:16;;;;;;;48.80;34.00;;;;;;;25.38;37.58;99720.48;104348;1260;72460;-66
2023/09/30 16:07:46;;;;;;;53.00;34.10;;;;;;;25.25;37.77;99727.20;104312;1259;60594;-66
2023/09/30 16:10:15;;;;;;;51.20;35.20;;;;;;;25.13;38.41;99725.08;104355;1255;60581;-66
2023/09/30 16:12:43;;;;;;;58.10;38.10;;;;;;;24.98;38.56;99723.87;104297;1270;73729;-63
2023/09/30 16:15:11;;;;;;;57.80;39.00;;;;;;;24.85;38.74;99730.56;104419;1254;69079;-63
2023/09/30 16:17:39;;;;;;;52.50;33.70;;;;;;;24.73;39.22;99731.83;104351;1276;72435;-63
2023/09/30 16:20:08;;;;;;;;;;;;;;;24.64;39.25;99731.27;104623;1260;60565;-62
2023/09/30 16:22:38;;;;;;;39.10;27.00;;;;;;;24.54;39.36;99733.89;104346;1267;60540;-59